createdAt,value
2022-09-17T00:00:38.318Z,1.50
2022-09-17T00:03:05.495Z,1.60
2022-09-17T00:05:32.504Z,1.70
2022-09-17T00:07:59.613Z,2.33
2022-09-17T00:10:26.422Z,1.63
2022-09-17T00:12:53.213Z,2.07
2022-09-17T00:15:20.124Z,2.07
2022-09-17T00:17:46.976Z,2.30
2022-09-17T00:20:13.932Z,2.03
2022-09-17T00:22:40.881Z,2.10
2022-09-17T00:25:08.760Z,2.17
2022-09-17T00:27:35.669Z,2.60
2022-09-17T00:30:02.530Z,2.27
2022-09-17T00:32:30.214Z,2.20
2022-09-17T00:34:57.044Z,2.60
2022-09-17T00:37:23.943Z,2.63
2022-09-17T00:39:50.780Z,2.23
2022-09-17T00:42:19.150Z,2.13
2022-09-17T00:44:51.014Z,2.30
2022-09-17T00:47:31.334Z,2.00
2022-09-17T00:50:18.433Z,2.47
2022-09-17T00:52:50.917Z,2.80
2022-09-17T00:55:23.635Z,2.70
2022-09-17T00:57:55.092Z,2.83
2022-09-17T01:00:23.431Z,2.03
2022-09-17T01:02:50.232Z,2.03
2022-09-17T01:05:17.271Z,2.50
2022-09-17T01:07:48.639Z,2.83
2022-09-17T01:10:21.554Z,2.33
2022-09-17T01:12:57.141Z,2.40
2022-09-17T01:15:36.255Z,2.40
2022-09-17T01:18:05.214Z,2.70
2022-09-17T01:20:41.190Z,2.33
2022-09-17T01:23:08.068Z,2.60
2022-09-17T01:25:34.848Z,2.47
2022-09-17T01:28:10.939Z,2.80
2022-09-17T01:30:56.282Z,2.30
2022-09-17T01:33:30.711Z,2.30
2022-09-17T01:36:06.455Z,2.73
2022-09-17T01:38:39.465Z,2.57
2022-09-17T01:41:24.967Z,2.57
2022-09-17T01:44:10.651Z,2.40
2022-09-17T01:46:46.418Z,2.57
2022-09-17T01:49:16.036Z,2.73
2022-09-17T01:51:46.154Z,2.30
2022-09-17T01:54:33.268Z,5.30
2022-09-17T01:57:02.866Z,3.07
2022-09-17T01:59:32.669Z,3.00
2022-09-17T02:02:03.674Z,2.50
2022-09-17T02:04:34.037Z,2.80
2022-09-17T02:07:04.382Z,2.97
2022-09-17T02:09:33.823Z,2.87
2022-09-17T02:12:03.639Z,2.50
2022-09-17T02:14:35.907Z,2.80
2022-09-17T02:17:14.318Z,2.20
2022-09-17T02:19:41.366Z,2.63
2022-09-17T02:22:46.734Z,3.23
2022-09-17T02:25:31.804Z,4.80
2022-09-17T02:28:04.730Z,4.10
2022-09-17T02:30:32.319Z,3.10
2022-09-17T02:33:00.062Z,1.60
2022-09-17T02:35:26.865Z,1.40
2022-09-17T02:37:53.717Z,2.60
2022-09-17T02:40:23.335Z,2.20
2022-09-17T02:43:08.967Z,2.70
2022-09-17T02:45:46.469Z,2.60
2022-09-17T02:48:19.282Z,3.00
2022-09-17T02:50:52.709Z,2.50
2022-09-17T02:53:41.575Z,2.40
2022-09-17T02:56:14.371Z,2.70
2022-09-17T02:58:46.489Z,2.70
2022-09-17T03:01:18.581Z,2.70
2022-09-17T03:03:46.280Z,2.60
2022-09-17T03:06:13.599Z,2.87
2022-09-17T03:08:41.796Z,2.80
2022-09-17T03:11:09.490Z,2.60
2022-09-17T03:13:36.679Z,2.33
2022-09-17T03:16:04.179Z,2.20
2022-09-17T03:18:31.154Z,2.23
2022-09-17T03:20:57.893Z,2.30
2022-09-17T03:23:25.262Z,1.97
2022-09-17T03:25:52.260Z,1.80
2022-09-17T03:28:19.164Z,2.20
2022-09-17T03:30:45.950Z,2.20
2022-09-17T03:33:13.325Z,2.17
2022-09-17T03:35:43.073Z,2.87
2022-09-17T03:38:09.945Z,3.50
2022-09-17T03:40:37.300Z,3.03
2022-09-17T03:43:04.829Z,3.37
2022-09-17T03:45:31.840Z,2.57
2022-09-17T03:47:58.724Z,2.40
2022-09-17T03:50:25.729Z,2.57
2022-09-17T03:52:52.592Z,2.10
2022-09-17T03:55:19.492Z,2.47
2022-09-17T03:57:46.426Z,2.47
2022-09-17T04:00:15.639Z,1.60
2022-09-17T04:02:43.178Z,2.10
2022-09-17T04:05:10.388Z,1.77
2022-09-17T04:07:37.576Z,2.03
2022-09-17T04:10:05.480Z,1.73
2022-09-17T04:12:32.444Z,2.10
2022-09-17T04:14:59.299Z,1.80
2022-09-17T04:17:26.157Z,2.13
2022-09-17T04:19:53.723Z,1.77
2022-09-17T04:22:20.628Z,1.47
2022-09-17T04:24:47.462Z,1.70
2022-09-17T04:27:14.323Z,0.90
2022-09-17T04:29:41.286Z,1.57
2022-09-17T04:32:08.222Z,1.63
2022-09-17T04:34:35.090Z,1.83
2022-09-17T04:37:01.967Z,1.67
2022-09-17T04:39:28.752Z,1.77
2022-09-17T04:41:55.641Z,1.63
2022-09-17T04:44:22.389Z,2.33
2022-09-17T04:46:49.244Z,1.77
2022-09-17T04:49:16.225Z,1.90
2022-09-17T04:51:43.393Z,2.17
2022-09-17T04:54:10.264Z,1.70
2022-09-17T04:56:37.006Z,2.20
2022-09-17T04:59:03.916Z,2.30
2022-09-17T05:01:30.784Z,2.23
2022-09-17T05:03:57.734Z,2.30
2022-09-17T05:06:24.565Z,2.30
2022-09-17T05:08:51.876Z,2.57
2022-09-17T05:11:18.615Z,2.33
2022-09-17T05:13:45.430Z,2.10
2022-09-17T05:16:12.344Z,2.20
2022-09-17T05:18:39.287Z,2.57
2022-09-17T05:21:06.144Z,2.43
2022-09-17T05:23:33.048Z,2.70
2022-09-17T05:26:00.554Z,2.60
2022-09-17T05:28:27.587Z,2.30
2022-09-17T05:30:54.630Z,2.40
2022-09-17T05:33:21.547Z,2.30
2022-09-17T05:35:48.418Z,2.53
2022-09-17T05:38:15.235Z,2.70
2022-09-17T05:40:42.049Z,2.50
2022-09-17T05:43:10.070Z,2.57
2022-09-17T05:45:37.703Z,2.30
2022-09-17T05:48:05.257Z,2.93
2022-09-17T05:50:32.692Z,2.93
2022-09-17T05:53:06.897Z,2.70
2022-09-17T05:55:35.224Z,2.20
2022-09-17T05:58:08.680Z,2.40
2022-09-17T06:00:35.558Z,2.33
2022-09-17T06:03:02.561Z,2.40
2022-09-17T06:05:29.513Z,3.13
2022-09-17T06:07:56.334Z,3.00
2022-09-17T06:10:23.117Z,2.70
2022-09-17T06:12:56.013Z,2.97
2022-09-17T06:15:22.959Z,3.20
2022-09-17T06:17:49.689Z,2.80
2022-09-17T06:20:16.619Z,3.40
2022-09-17T06:22:43.515Z,3.93
2022-09-17T06:25:10.393Z,4.27
2022-09-17T06:27:37.353Z,4.20
2022-09-17T06:30:04.278Z,3.97
2022-09-17T06:32:31.070Z,4.10
2022-09-17T06:34:58.037Z,3.70
2022-09-17T06:37:32.430Z,3.80
2022-09-17T06:39:59.734Z,3.77
2022-09-17T06:42:26.983Z,3.57
2022-09-17T06:44:53.833Z,3.47
2022-09-17T06:47:21.412Z,3.97
2022-09-17T06:49:48.215Z,4.13
2022-09-17T06:52:15.014Z,3.80
2022-09-17T06:54:41.860Z,3.63
2022-09-17T06:57:08.617Z,3.80
2022-09-17T06:59:35.448Z,3.50
2022-09-17T07:02:02.231Z,3.13
2022-09-17T07:04:29.253Z,3.17
2022-09-17T07:06:56.029Z,2.93
2022-09-17T07:09:23.352Z,3.47
2022-09-17T07:11:50.184Z,2.93
2022-09-17T07:14:17.153Z,2.90
2022-09-17T07:16:43.877Z,3.93
2022-09-17T07:19:11.214Z,3.03
2022-09-17T07:21:38.523Z,2.90
2022-09-17T07:24:05.659Z,3.13
2022-09-17T07:26:32.424Z,3.00
2022-09-17T07:29:00.061Z,3.40
2022-09-17T07:31:27.169Z,3.03
2022-09-17T07:33:54.149Z,2.67
2022-09-17T07:36:20.974Z,2.97
2022-09-17T07:38:47.781Z,3.27
2022-09-17T07:41:15.719Z,2.70
2022-09-17T07:43:43.663Z,2.80
2022-09-17T07:46:13.752Z,3.53
2022-09-17T07:48:41.043Z,3.27
2022-09-17T07:51:07.970Z,2.80
2022-09-17T07:53:34.834Z,3.10
2022-09-17T07:56:01.761Z,3.40
2022-09-17T07:58:29.903Z,3.30
2022-09-17T08:01:04.304Z,3.50
2022-09-17T08:03:31.269Z,3.90
2022-09-17T08:06:05.235Z,3.50
2022-09-17T08:08:33.689Z,3.13
2022-09-17T08:11:04.891Z,3.67
2022-09-17T08:13:32.116Z,4.00
2022-09-17T08:16:00.332Z,3.47
2022-09-17T08:18:27.771Z,4.03
2022-09-17T08:20:58.842Z,3.00
2022-09-17T08:23:26.383Z,3.33
2022-09-17T08:25:54.283Z,3.77
2022-09-17T08:28:21.652Z,3.50
2022-09-17T08:30:49.629Z,3.37
2022-09-17T08:33:17.468Z,3.50
2022-09-17T08:35:50.973Z,3.60
2022-09-17T08:38:18.253Z,3.23
2022-09-17T08:41:08.312Z,2.73
2022-09-17T08:43:38.187Z,4.70
2022-09-17T08:46:05.190Z,3.83
2022-09-17T08:48:36.866Z,3.80
2022-09-17T08:51:08.846Z,3.47
2022-09-17T08:53:51.640Z,3.70
2022-09-17T08:56:19.256Z,3.10
2022-09-17T08:59:02.908Z,3.10
2022-09-17T09:01:35.692Z,3.10
2022-09-17T09:04:11.478Z,3.40
2022-09-17T09:06:42.590Z,3.37
2022-09-17T09:09:14.238Z,3.33
2022-09-17T09:11:42.877Z,3.30
2022-09-17T09:14:22.815Z,3.40
2022-09-17T09:16:50.046Z,3.10
2022-09-17T09:19:24.094Z,3.53
2022-09-17T09:21:53.995Z,3.00
2022-09-17T09:24:25.417Z,3.47
2022-09-17T09:26:55.293Z,4.23
2022-09-17T09:29:37.281Z,3.67
2022-09-17T09:32:22.563Z,3.70
2022-09-17T09:34:49.886Z,4.50
2022-09-17T09:37:24.940Z,4.07
2022-09-17T09:39:53.082Z,4.53
2022-09-17T09:42:19.818Z,4.30
2022-09-17T09:44:46.891Z,4.27
2022-09-17T09:47:19.894Z,3.83
2022-09-17T09:50:06.782Z,4.57
2022-09-17T09:52:33.551Z,4.30
2022-09-17T09:55:03.127Z,4.63
2022-09-17T09:57:47.120Z,6.27
2022-09-17T10:00:40.256Z,4.57
2022-09-17T10:03:26.035Z,4.80
2022-09-17T10:06:13.201Z,4.07
2022-09-17T10:08:41.415Z,3.77
2022-09-17T10:11:14.063Z,5.73
2022-09-17T10:13:41.006Z,4.10
2022-09-17T10:16:29.616Z,4.47
2022-09-17T10:18:59.399Z,4.30
2022-09-17T10:21:36.658Z,4.67
2022-09-17T10:24:04.506Z,3.80
2022-09-17T10:26:32.867Z,3.97
2022-09-17T10:29:05.281Z,4.30
2022-09-17T10:31:55.292Z,3.87
2022-09-17T10:34:23.533Z,4.40
2022-09-17T10:36:50.605Z,4.27
2022-09-17T10:39:33.016Z,3.30
2022-09-17T10:42:11.687Z,5.17
2022-09-17T10:44:39.144Z,4.10
2022-09-17T10:47:20.146Z,4.17
2022-09-17T10:49:48.750Z,3.60
2022-09-17T10:52:18.581Z,3.83
2022-09-17T11:01:03.173Z,3.73
2022-09-17T11:03:48.905Z,3.80
2022-09-17T11:06:15.797Z,4.40
2022-09-17T11:08:42.541Z,4.50
2022-09-17T11:11:15.418Z,4.40
2022-09-17T11:13:51.228Z,4.70
2022-09-17T11:16:27.640Z,4.10
2022-09-17T11:18:54.511Z,4.00
2022-09-17T11:21:28.817Z,3.57
2022-09-17T11:24:04.697Z,3.90
2022-09-17T11:26:49.208Z,3.97
2022-09-17T11:29:28.139Z,4.10
2022-09-17T11:32:03.954Z,5.20
2022-09-17T11:34:36.775Z,5.03
2022-09-17T11:37:03.629Z,4.57
2022-09-17T11:39:30.509Z,5.43
2022-09-17T11:42:01.256Z,3.87
2022-09-17T11:44:40.731Z,7.43
2022-09-17T11:47:10.617Z,4.43
2022-09-17T11:49:50.627Z,3.80
2022-09-17T11:52:17.475Z,3.77
2022-09-17T11:54:44.303Z,5.60
2022-09-17T11:57:16.768Z,4.87
2022-09-17T11:59:50.172Z,6.87
2022-09-17T12:02:19.901Z,4.97
2022-09-17T12:04:56.342Z,3.33
2022-09-17T12:07:39.929Z,5.00
2022-09-17T12:10:06.841Z,5.20
2022-09-17T12:12:50.764Z,3.90
2022-09-17T12:15:23.696Z,3.70
2022-09-17T12:18:31.245Z,3.23
2022-09-17T12:20:57.381Z,4.03
2022-09-17T12:23:44.657Z,3.87
2022-09-17T12:26:18.458Z,4.77
2022-09-17T12:29:01.923Z,3.40
2022-09-17T12:31:35.416Z,3.00
2022-09-17T12:34:10.777Z,4.00
2022-09-17T12:36:37.727Z,3.93
2022-09-17T12:39:08.922Z,3.53
2022-09-17T12:41:35.768Z,4.70
2022-09-17T12:44:05.667Z,4.33
2022-09-17T12:46:41.730Z,3.60
2022-09-17T12:49:11.440Z,3.90
2022-09-17T12:51:38.324Z,4.20
2022-09-17T12:54:17.083Z,4.00
2022-09-17T12:56:57.565Z,4.87
2022-09-17T12:59:29.212Z,5.17
2022-09-17T13:02:19.059Z,4.60
2022-09-17T13:05:00.560Z,5.00
2022-09-17T13:07:34.141Z,3.67
2022-09-17T13:10:19.739Z,4.13
2022-09-17T13:12:56.923Z,6.10
2022-09-17T13:15:42.441Z,4.90
2022-09-17T13:18:32.724Z,5.77
2022-09-17T13:21:13.315Z,7.77
2022-09-17T13:23:44.629Z,4.83
2022-09-17T13:26:17.185Z,4.03
2022-09-17T13:28:47.624Z,2.97
2022-09-17T13:31:22.461Z,3.30
2022-09-17T13:33:59.484Z,4.13
2022-09-17T13:36:35.276Z,4.00
2022-09-17T13:39:03.479Z,7.50
2022-09-17T13:41:32.051Z,7.37
2022-09-17T13:43:59.386Z,4.00
2022-09-17T13:46:28.276Z,5.60
2022-09-17T13:49:00.519Z,5.47
2022-09-17T13:51:30.451Z,5.90
2022-09-17T13:54:11.401Z,4.47
2022-09-17T13:56:43.192Z,5.33
2022-09-17T13:59:10.021Z,5.10
2022-09-17T14:01:55.299Z,4.73
2022-09-17T14:04:34.602Z,4.40
2022-09-17T14:07:03.300Z,3.40
2022-09-17T14:09:36.004Z,4.30
2022-09-17T14:12:23.489Z,4.97
2022-09-17T14:14:52.161Z,4.80
2022-09-17T14:17:37.634Z,5.80
2022-09-17T14:20:05.679Z,3.80
2022-09-17T14:22:33.156Z,3.70
2022-09-17T14:25:00.193Z,3.17
2022-09-17T14:27:45.635Z,3.93
2022-09-17T14:30:22.585Z,3.87
2022-09-17T14:32:57.300Z,5.13
2022-09-17T14:35:29.503Z,4.77
2022-09-17T14:38:01.191Z,5.67
2022-09-17T14:40:29.009Z,4.93
2022-09-17T14:42:57.026Z,4.30
2022-09-17T14:45:25.886Z,4.50
2022-09-17T14:48:15.848Z,4.10
2022-09-17T14:50:42.686Z,5.07
2022-09-17T14:53:15.398Z,4.17
2022-09-17T14:55:42.742Z,5.33
2022-09-17T14:58:25.611Z,4.33
2022-09-17T15:00:53.464Z,4.73
2022-09-17T15:03:23.754Z,4.70
2022-09-17T15:05:51.469Z,4.13
2022-09-17T15:08:23.392Z,4.50
2022-09-17T15:10:50.326Z,5.70
2022-09-17T15:13:28.079Z,4.80
2022-09-17T15:16:13.861Z,4.97
2022-09-17T15:18:43.250Z,4.50
2022-09-17T15:21:41.219Z,8.60
2022-09-17T15:24:14.097Z,14.37
2022-09-17T15:26:42.995Z,10.57
2022-09-17T15:29:21.660Z,9.57
2022-09-17T15:31:48.655Z,5.73
2022-09-17T15:34:15.565Z,5.87
2022-09-17T15:37:02.730Z,6.50
2022-09-17T15:39:31.138Z,6.40
2022-09-17T15:41:58.304Z,5.57
2022-09-17T15:44:30.391Z,5.00
2022-09-17T15:47:17.440Z,4.63
2022-09-17T15:50:03.961Z,3.90
2022-09-17T15:52:34.219Z,4.40
2022-09-17T15:55:01.405Z,3.37
2022-09-17T15:57:29.646Z,4.40
2022-09-17T15:59:56.741Z,4.70
2022-09-17T16:02:31.646Z,5.73
2022-09-17T16:05:14.084Z,5.70
2022-09-17T16:07:41.315Z,4.60
2022-09-17T16:10:09.296Z,15.73
2022-09-17T16:12:36.602Z,5.10
2022-09-17T16:15:03.812Z,4.10
2022-09-17T16:17:33.417Z,3.80
2022-09-17T16:20:05.895Z,4.00
2022-09-17T16:22:33.397Z,4.07
2022-09-17T16:25:00.204Z,3.83
2022-09-17T16:27:30.301Z,4.17
2022-09-17T16:30:09.273Z,3.60
2022-09-17T16:32:36.296Z,4.07
2022-09-17T16:35:03.186Z,4.20
2022-09-17T16:37:30.137Z,4.60
2022-09-17T16:39:57.155Z,2.60
2022-09-17T16:42:24.087Z,2.50
2022-09-17T16:44:50.901Z,2.87
2022-09-17T16:47:17.790Z,1.60
2022-09-17T16:49:44.539Z,1.30
2022-09-17T16:52:11.462Z,0.97
2022-09-17T16:54:38.245Z,1.17
2022-09-17T16:57:05.235Z,1.90
2022-09-17T16:59:32.124Z,2.20
2022-09-17T17:01:59.014Z,2.40
2022-09-17T17:04:25.960Z,1.63
2022-09-17T17:06:52.832Z,1.07
2022-09-17T17:09:19.589Z,1.60
2022-09-17T17:11:46.703Z,2.00
2022-09-17T17:14:14.891Z,1.90
2022-09-17T17:16:43.727Z,3.57
2022-09-17T17:19:10.895Z,3.23
2022-09-17T17:21:37.957Z,4.87
2022-09-17T17:24:06.842Z,5.63
2022-09-17T17:26:34.219Z,6.87
2022-09-17T17:29:02.678Z,7.07
2022-09-17T17:31:29.880Z,3.63
2022-09-17T17:33:57.814Z,2.20
2022-09-17T17:36:24.613Z,2.00
2022-09-17T17:38:55.892Z,3.40
2022-09-17T17:41:25.658Z,3.97
2022-09-17T17:43:53.188Z,2.80
2022-09-17T17:46:19.992Z,2.57
2022-09-17T17:48:46.961Z,3.63
2022-09-17T17:51:13.710Z,4.17
2022-09-17T17:53:43.736Z,7.80
2022-09-17T17:56:11.276Z,8.27
2022-09-17T17:58:38.704Z,6.93
2022-09-17T18:01:11.630Z,4.77
2022-09-17T18:03:38.450Z,3.13
2022-09-17T18:06:06.132Z,3.00
2022-09-17T18:08:33.359Z,3.40
2022-09-17T18:11:03.505Z,3.77
2022-09-17T18:13:30.423Z,5.13
2022-09-17T18:15:58.966Z,5.30
2022-09-17T18:34:19.295Z,5.80
2022-09-17T18:36:50.867Z,4.17
2022-09-17T18:39:57.383Z,3.23
2022-09-17T18:42:05.114Z,3.03
2022-09-17T18:44:31.976Z,3.27
2022-09-17T18:46:58.862Z,3.73
2022-09-17T18:49:25.838Z,3.73
2022-09-17T18:51:52.623Z,3.07
2022-09-17T18:54:19.575Z,2.97
2022-09-17T18:56:46.308Z,2.80
2022-09-17T18:59:13.417Z,2.70
2022-09-17T19:01:40.635Z,2.30
2022-09-17T19:04:08.025Z,2.23
2022-09-17T19:06:35.750Z,2.40
2022-09-17T19:09:03.676Z,1.90
2022-09-17T19:11:30.667Z,1.57
2022-09-17T19:13:57.570Z,1.80
2022-09-17T19:16:25.117Z,1.47
2022-09-17T19:18:51.990Z,1.60
2022-09-17T19:21:21.825Z,1.63
2022-09-17T19:23:50.591Z,1.80
2022-09-17T19:26:19.021Z,2.17
2022-09-17T19:28:46.064Z,1.90
2022-09-17T19:31:14.331Z,1.77
2022-09-17T19:33:41.648Z,1.60
2022-09-17T19:36:10.575Z,1.70
2022-09-17T19:38:37.957Z,1.87
2022-09-17T19:41:07.106Z,1.80
2022-09-17T19:43:34.303Z,2.00
2022-09-17T19:46:02.030Z,2.27
2022-09-17T19:48:29.429Z,2.00
2022-09-17T19:50:57.111Z,2.40
2022-09-17T19:53:24.324Z,2.20
2022-09-17T19:55:51.378Z,2.10
2022-09-17T19:58:18.253Z,2.57
2022-09-17T20:00:45.216Z,2.33
2022-09-17T20:03:12.481Z,1.97
2022-09-17T20:05:39.273Z,2.00
2022-09-17T20:08:06.508Z,1.80
2022-09-17T20:10:36.643Z,2.07
2022-09-17T20:13:04.094Z,1.87
2022-09-17T20:15:33.962Z,1.90
2022-09-17T20:18:00.928Z,2.20
2022-09-17T20:20:28.768Z,1.90
2022-09-17T20:22:56.234Z,1.97
2022-09-17T20:25:25.765Z,2.00
2022-09-17T20:27:53.414Z,3.13
2022-09-17T20:30:20.401Z,3.90
2022-09-17T20:32:48.082Z,3.00
2022-09-17T20:35:15.137Z,2.27
2022-09-17T20:38:39.265Z,1.93
2022-09-17T20:40:30.086Z,2.23
2022-09-17T20:42:56.934Z,1.80
2022-09-17T20:45:23.793Z,1.57
2022-09-17T20:47:51.448Z,1.97
2022-09-17T20:50:18.287Z,2.30
2022-09-17T20:52:45.053Z,2.30
2022-09-17T20:55:11.951Z,1.70
2022-09-17T20:57:38.720Z,1.90
2022-09-17T21:00:18.068Z,1.37
2022-09-17T21:02:50.651Z,1.90
2022-09-17T21:05:18.637Z,2.27
2022-09-17T21:07:45.644Z,2.20
2022-09-17T21:10:13.653Z,2.33
2022-09-17T21:12:40.419Z,1.97
2022-09-17T21:15:07.577Z,3.17
2022-09-17T21:17:34.868Z,2.33
2022-09-17T21:20:01.891Z,2.00
2022-09-17T21:22:28.725Z,2.03
2022-09-17T21:24:55.695Z,1.80
2022-09-17T21:27:22.587Z,2.30
2022-09-17T21:29:49.445Z,1.90
2022-09-17T21:32:16.445Z,2.50
2022-09-17T21:34:43.378Z,2.17
2022-09-17T21:37:10.228Z,2.07
2022-09-17T21:39:37.156Z,2.00
2022-09-17T21:42:04.477Z,1.93
2022-09-17T21:44:31.412Z,2.00
2022-09-17T21:46:58.442Z,1.53
2022-09-17T21:49:25.470Z,4.17
2022-09-17T21:51:52.371Z,4.73
2022-09-17T21:54:19.175Z,3.80
2022-09-17T21:56:46.577Z,2.17
2022-09-17T21:59:14.518Z,2.10
2022-09-17T22:01:46.918Z,2.10
2022-09-17T22:04:15.417Z,1.90
2022-09-17T22:06:42.577Z,2.10
2022-09-17T22:09:14.236Z,1.83
2022-09-17T22:11:41.096Z,2.00
2022-09-17T22:14:15.745Z,1.60
2022-09-17T22:16:43.901Z,1.80
2022-09-17T22:19:12.864Z,1.90
2022-09-17T22:21:41.878Z,1.90
2022-09-17T22:24:10.033Z,1.90
2022-09-17T22:26:38.346Z,1.70
2022-09-17T22:29:07.227Z,2.33
2022-09-17T22:31:34.242Z,1.70
2022-09-17T22:34:01.301Z,2.50
2022-09-17T22:36:28.492Z,2.73
2022-09-17T22:38:56.922Z,2.30
2022-09-17T22:41:25.155Z,2.10
2022-09-17T22:43:56.045Z,2.30
2022-09-17T22:46:25.518Z,2.17
2022-09-17T22:48:52.564Z,2.17
2022-09-17T22:51:19.514Z,2.00
2022-09-17T22:53:46.506Z,1.80
2022-09-17T22:56:15.023Z,2.00
2022-09-17T22:58:42.460Z,1.53
2022-09-17T23:01:14.011Z,2.10
2022-09-17T23:03:41.922Z,1.80
2022-09-17T23:06:10.426Z,1.90
2022-09-17T23:08:38.120Z,2.00
2022-09-17T23:11:06.326Z,1.47
2022-09-17T23:13:33.886Z,1.87
2022-09-17T23:16:05.448Z,2.30
2022-09-17T23:18:32.747Z,2.10
2022-09-17T23:21:00.515Z,1.60
2022-09-17T23:23:27.687Z,2.33
2022-09-17T23:25:55.395Z,1.93
2022-09-17T23:28:22.682Z,1.80
2022-09-17T23:30:49.780Z,2.13
2022-09-17T23:33:16.683Z,2.50
2022-09-17T23:35:43.474Z,2.03
2022-09-17T23:38:10.525Z,1.93
2022-09-17T23:40:37.307Z,1.70
2022-09-17T23:43:04.280Z,2.13
2022-09-17T23:45:31.087Z,2.40
2022-09-17T23:47:57.927Z,1.73
2022-09-17T23:50:26.237Z,2.10
2022-09-17T23:52:53.279Z,2.40
2022-09-17T23:55:20.034Z,2.10
2022-09-17T23:57:47.039Z,2.00
